Aberdeen, Kentucky
Current Conditions -  °F | °C
As of 11:35 AM on Friday 31 Oct 2014 (Local Time) from KBWG Reporting Station
Overcast Overcast  
Wind Chill: 50°   Ceiling: 2200
Heat Index: 50°   Visibility: 10mi
Dew Point: 44°   Wind: 7mph
Humidity: 80%   Direction: 330°NNW
Pressure: 30.03"   Gusts: NA
Location:  37.25°N, 86.68°W
Report Text: KBWG 311635Z AUTO 33006KT 10SM SCT016 BKN022 OVC055 10/07 A3003 RMK AO2 T01000067
Loading
Personal Weather Stations






























Interactive Weather Map
Tropical Storm Tracking
New forecast layout! Learn more

10-Day Weather Forecast

Advertisements
Track Severe Weather on mobile